Terminal Aerodrome Forecast
Issued by NWS

Home | Current Version | Previous Version | Text Only | Print | Product List | Glossary On
Versions: 1 2 3 4 5 6 7 8 9 10 11 12 13 14 15 16 17 18 19 20 21 22 23
000
FTUS45 KBOI 271138
TAFJER
TAF
KJER 271138Z 2712/2812 05007KT P6SM OVC150
     FM271700 33007KT P6SM OVC100
     FM280000 05011KT P6SM OVC150=

USA.gov is the U.S. government's official web portal to all federal, state and local government web resources and services.